Time;durP1;ratioP1;P1;durP2;ratioP2;P2;SDS_P1;SDS_P2;PMS_P1;PMS_P2;Temp;Humidity;BMP_temperature;BMP_pressure;BME280_temperature;BME280_humidity;BME280_pressure;Samples;Min_cycle;Max_cycle;Signal;HPM_P1;HPM_P2
2022/10/06 00:02:11;;;;;;;0.63;0.60;;;;;;;28.15;22.01;98782.44;5102117;28;20038;-79
2022/10/06 00:04:37;;;;;;;0.75;0.70;;;;;;;28.20;22.27;98787.53;5107731;28;20508;-79
2022/10/06 00:07:03;;;;;;;1.30;0.80;;;;;;;28.32;22.05;98798.09;5108295;28;20544;-79
2022/10/06 00:09:29;;;;;;;1.30;0.70;;;;;;;28.44;21.71;98791.72;5111468;28;20479;-79
2022/10/06 00:11:55;;;;;;;0.95;0.68;;;;;;;28.37;21.74;98801.19;5097054;28;20024;-79
2022/10/06 00:14:21;;;;;;;0.60;0.60;;;;;;;28.32;21.77;98804.56;5105116;28;20502;-79
2022/10/06 00:16:47;;;;;;;1.85;0.70;;;;;;;28.29;21.57;98801.81;5107786;28;20023;-78
2022/10/06 00:19:13;;;;;;;0.73;0.60;;;;;;;28.30;21.47;98800.59;5109049;28;20035;-79
2022/10/06 00:21:39;;;;;;;3.83;0.70;;;;;;;28.13;22.03;98802.66;5110280;28;20059;-79
2022/10/06 00:24:05;;;;;;;0.57;0.57;;;;;;;28.12;21.65;98815.22;5102419;28;20047;-79
2022/10/06 00:26:31;;;;;;;0.70;0.70;;;;;;;28.04;22.23;98806.13;5103571;28;20558;-79
2022/10/06 00:28:57;;;;;;;1.30;0.50;;;;;;;28.08;22.18;98805.25;5108095;28;20027;-79
2022/10/06 00:31:23;;;;;;;0.88;0.60;;;;;;;28.24;21.86;98802.38;5106914;28;20482;-79
2022/10/06 00:33:49;;;;;;;2.63;0.70;;;;;;;28.23;21.97;98810.06;5105220;28;20038;-79
2022/10/06 00:36:16;;;;;;;1.20;0.50;;;;;;;28.22;21.64;98805.63;5097958;28;20040;-79
2022/10/06 00:38:42;;;;;;;0.50;0.50;;;;;;;28.08;22.13;98806.81;5102228;28;20032;-79
2022/10/06 00:41:12;;;;;;;3.10;0.75;;;;;;;27.88;21.89;98811.75;5109529;28;20039;-79
2022/10/06 00:43:47;;;;;;;5.33;0.70;;;;;;;27.72;22.27;98811.78;5107202;28;20088;-79
2022/10/06 00:46:40;;;;;;;0.90;0.60;;;;;;;27.59;22.96;98812.91;5112497;28;20027;-79
2022/10/06 00:49:12;;;;;;;0.50;0.50;;;;;;;27.79;22.54;98816.44;5108268;28;20148;-79
2022/10/06 00:51:43;;;;;;;1.45;0.50;;;;;;;27.65;22.55;98811.97;5115468;28;20024;-80
2022/10/06 00:54:09;;;;;;;0.60;0.50;;;;;;;27.72;22.41;98811.78;5109302;27;20044;-80
2022/10/06 00:56:39;;;;;;;0.45;0.45;;;;;;;27.63;22.67;98820.06;5112541;28;20031;-80
2022/10/06 00:59:10;;;;;;;0.57;0.57;;;;;;;27.73;22.48;98830.28;5113833;28;20055;-79
2022/10/06 01:01:38;;;;;;;0.80;0.60;;;;;;;27.76;22.37;98826.59;5103357;28;20388;-79
2022/10/06 01:04:09;;;;;;;1.90;0.90;;;;;;;27.64;22.44;98827.28;5105677;28;20104;-79
2022/10/06 01:06:48;;;;;;;0.50;0.50;;;;;;;27.74;22.64;98828.25;5104464;28;20020;-79
2022/10/06 01:09:16;;;;;;;0.52;0.52;;;;;;;27.89;22.17;98835.91;5098889;27;20024;-79
2022/10/06 01:11:43;;;;;;;1.27;0.80;;;;;;;27.81;22.26;98831.69;5106692;28;20398;-79
2022/10/06 01:14:10;;;;;;;2.40;0.47;;;;;;;27.82;22.56;98841.75;5114124;28;20432;-79
2022/10/06 01:16:39;;;;;;;1.40;0.52;;;;;;;27.89;22.15;98846.44;5115454;28;20077;-79
2022/10/06 01:19:16;;;;;;;3.53;0.50;;;;;;;27.83;22.19;98840.53;5116133;28;20062;-79
2022/10/06 01:21:47;;;;;;;0.52;0.52;;;;;;;28.01;21.89;98842.91;5110239;28;20024;-79
2022/10/06 01:24:15;;;;;;;1.10;0.70;;;;;;;28.08;21.88;98846.34;5104760;28;20395;-79
2022/10/06 01:26:47;;;;;;;2.08;0.57;;;;;;;28.02;22.18;98850.16;5111152;28;20207;-79
2022/10/06 01:29:13;;;;;;;6.55;0.50;;;;;;;28.02;22.17;98856.59;5110588;28;20365;-79
2022/10/06 01:31:40;;;;;;;0.40;0.40;;;;;;;27.86;21.76;98865.03;5109126;28;20065;-80
2022/10/06 01:34:06;;;;;;;1.13;0.70;;;;;;;27.83;22.11;98865.91;5114216;28;20027;-80
2022/10/06 01:36:32;;;;;;;0.70;0.40;;;;;;;27.99;21.55;98865.94;5109658;28;20046;-79
2022/10/06 01:38:58;;;;;;;2.60;0.50;;;;;;;27.80;21.78;98875.25;5109528;28;20060;-80
2022/10/06 01:41:25;;;;;;;0.82;0.38;;;;;;;27.83;21.70;98874.38;5110847;28;20032;-80
2022/10/06 01:43:52;;;;;;;1.85;0.88;;;;;;;27.73;21.74;98863.34;5110045;28;20559;-79
2022/10/06 01:46:18;;;;;;;0.60;0.40;;;;;;;27.60;22.00;98862.47;5111411;28;20054;-80
2022/10/06 01:48:44;;;;;;;0.75;0.63;;;;;;;27.52;22.30;98875.13;5103867;28;20106;-80
2022/10/06 01:51:19;;;;;;;0.65;0.50;;;;;;;27.45;22.64;98873.28;5114167;28;20058;-79
2022/10/06 01:53:45;;;;;;;0.60;0.60;;;;;;;27.40;22.25;98882.25;5103477;28;20035;-79
2022/10/06 01:56:12;;;;;;;0.60;0.52;;;;;;;27.38;22.23;98884.72;5111716;28;20028;-79
2022/10/06 01:58:38;;;;;;;0.73;0.60;;;;;;;27.40;22.26;98876.63;5106407;28;20155;-80
2022/10/06 02:01:06;;;;;;;0.90;0.60;;;;;;;27.48;22.33;98882.91;5106927;28;20039;-80
2022/10/06 02:03:39;;;;;;;0.50;0.50;;;;;;;27.40;22.54;98885.06;5109299;28;20031;-80
2022/10/06 02:06:06;;;;;;;0.85;0.50;;;;;;;27.18;22.57;98889.59;5111698;28;20036;-79
2022/10/06 02:08:32;;;;;;;0.68;0.57;;;;;;;27.24;22.86;98885.00;5113938;28;20031;-79
2022/10/06 02:11:03;;;;;;;0.80;0.43;;;;;;;27.14;22.46;98886.81;5110871;28;20059;-79
2022/10/06 02:13:29;;;;;;;;;;;;;;;27.14;22.70;98884.00;5106698;28;20032;-79
2022/10/06 02:15:59;;;;;;;0.50;0.50;;;;;;;27.15;22.54;98890.44;5108750;28;19922;-79
2022/10/06 02:18:25;;;;;;;0.57;0.50;;;;;;;27.30;22.62;98880.47;5110638;28;20028;-79
2022/10/06 02:20:51;;;;;;;3.25;0.55;;;;;;;27.44;21.92;98888.63;5107624;28;20035;-79
2022/10/06 02:23:17;;;;;;;2.70;0.50;;;;;;;27.47;21.77;98875.69;5109323;28;20046;-79
2022/10/06 02:25:43;;;;;;;0.95;0.52;;;;;;;27.25;22.67;98873.31;5108934;28;20050;-79
2022/10/06 02:28:09;;;;;;;2.35;0.57;;;;;;;27.35;22.54;98875.06;5109215;28;20067;-79
2022/10/06 02:30:35;;;;;;;3.50;0.60;;;;;;;27.53;22.25;98880.34;5099653;28;20032;-79
2022/10/06 02:33:01;;;;;;;0.52;0.50;;;;;;;27.61;21.85;98884.59;5102137;28;20051;-79
2022/10/06 02:35:27;;;;;;;0.73;0.50;;;;;;;27.61;21.85;98886.63;5105277;28;20663;-79
2022/10/06 02:37:53;;;;;;;0.40;0.40;;;;;;;27.45;21.89;98895.84;5109578;28;20028;-79
2022/10/06 02:40:19;;;;;;;0.65;0.60;;;;;;;27.52;22.11;98892.06;5113678;28;20483;-79
2022/10/06 02:42:45;;;;;;;2.45;0.70;;;;;;;27.71;21.67;98886.38;5111553;28;20038;-79
2022/10/06 02:45:11;;;;;;;0.50;0.50;;;;;;;27.86;21.37;98889.66;5114163;28;20032;-79
2022/10/06 02:47:37;;;;;;;1.50;0.68;;;;;;;27.70;21.31;98884.75;5107543;28;20040;-79
2022/10/06 02:50:06;;;;;;;0.60;0.60;;;;;;;27.53;21.78;98886.00;5108449;28;20080;-79
2022/10/06 02:52:39;;;;;;;0.73;0.65;;;;;;;27.39;21.55;98877.88;5108534;28;20044;-79
2022/10/06 02:55:06;;;;;;;0.60;0.60;;;;;;;27.26;21.79;98880.53;5108912;28;20028;-79
2022/10/06 02:57:32;;;;;;;0.95;0.50;;;;;;;26.76;22.52;98882.81;5109398;28;20085;-79
2022/10/06 02:59:59;;;;;;;5.00;0.82;;;;;;;26.49;23.46;98890.56;5112646;28;20036;-79
2022/10/06 03:02:28;;;;;;;0.95;0.73;;;;;;;26.56;23.31;98891.22;5108685;28;20046;-79
2022/10/06 03:04:54;;;;;;;1.02;0.90;;;;;;;26.86;23.12;98892.28;5112477;27;20027;-79
2022/10/06 03:07:20;;;;;;;1.60;0.80;;;;;;;27.01;22.20;98888.72;5111649;28;20035;-79
2022/10/06 03:09:46;;;;;;;1.20;0.68;;;;;;;26.99;22.46;98887.56;5111915;28;20054;-79
2022/10/06 03:12:12;;;;;;;0.57;0.57;;;;;;;27.04;22.30;98887.88;5111486;28;20372;-79
2022/10/06 03:14:38;;;;;;;1.45;0.93;;;;;;;27.17;22.07;98887.97;5112972;28;20487;-79
2022/10/06 03:17:04;;;;;;;1.92;0.80;;;;;;;27.06;22.38;98893.88;5112097;28;20539;-79
2022/10/06 03:19:30;;;;;;;0.80;0.80;;;;;;;26.69;23.09;98891.38;5108002;28;20495;-79
2022/10/06 03:21:56;;;;;;;1.23;0.75;;;;;;;26.62;22.75;98891.53;5109118;28;20028;-79
2022/10/06 03:24:22;;;;;;;1.23;0.90;;;;;;;26.75;22.97;98892.47;5109021;28;20058;-79
2022/10/06 03:26:48;;;;;;;0.70;0.70;;;;;;;26.78;22.80;98891.63;5109198;28;20040;-79
2022/10/06 03:29:15;;;;;;;1.10;0.82;;;;;;;26.63;22.77;98896.72;5110834;28;20514;-79
2022/10/06 03:31:42;;;;;;;2.50;1.02;;;;;;;26.63;22.98;98898.72;5108077;28;20036;-79
2022/10/06 03:34:08;;;;;;;1.67;1.10;;;;;;;26.76;23.01;98891.28;5109661;28;20036;-79
2022/10/06 03:36:35;;;;;;;1.48;1.00;;;;;;;26.53;23.13;98894.13;5095754;28;20150;-79
2022/10/06 03:39:03;;;;;;;2.05;1.10;;;;;;;26.56;23.48;98898.84;5099294;28;20036;-79
2022/10/06 03:41:31;;;;;;;1.75;1.33;;;;;;;26.43;23.56;98897.91;5108872;28;20039;-79
2022/10/06 03:43:58;;;;;;;2.10;1.08;;;;;;;26.58;23.70;98900.03;5098053;28;20479;-79
2022/10/06 03:46:27;;;;;;;1.77;1.02;;;;;;;26.80;23.27;98891.19;5108276;28;20490;-79
2022/10/06 03:48:55;;;;;;;1.55;1.00;;;;;;;27.01;22.86;98900.00;5101706;28;20499;-79
2022/10/06 03:51:26;;;;;;;3.28;1.15;;;;;;;27.08;22.51;98896.22;5108871;28;20039;-79
2022/10/06 03:53:52;;;;;;;1.30;1.03;;;;;;;27.07;22.60;98901.06;5113512;28;20430;-79
2022/10/06 03:56:21;;;;;;;1.38;1.10;;;;;;;27.12;22.30;98897.75;5121329;27;20075;-79
2022/10/06 03:58:53;;;;;;;2.15;1.15;;;;;;;26.87;22.42;98902.31;5118976;27;20035;-79
2022/10/06 04:01:22;;;;;;;1.25;1.15;;;;;;;26.97;22.97;98896.47;5105097;28;20027;-80
2022/10/06 04:03:48;;;;;;;1.55;1.05;;;;;;;26.89;23.11;98906.28;5106570;28;20039;-79
2022/10/06 04:06:17;;;;;;;2.05;0.80;;;;;;;26.91;22.81;98903.81;5101456;28;20485;-79
2022/10/06 04:08:45;;;;;;;1.25;1.00;;;;;;;27.02;22.93;98900.81;5112781;28;20110;-79
2022/10/06 04:11:23;;;;;;;1.40;1.15;;;;;;;26.93;23.47;98901.41;5105785;28;20111;-78
2022/10/06 04:13:53;;;;;;;1.55;1.05;;;;;;;27.09;23.48;98903.47;5100196;28;20387;-79
2022/10/06 04:16:44;;;;;;;2.75;1.10;;;;;;;27.07;22.83;98903.13;5099094;28;20038;-78
2022/10/06 04:19:12;;;;;;;1.15;1.08;;;;;;;26.93;23.03;98907.03;5100880;28;20043;-78
2022/10/06 04:21:40;;;;;;;1.58;1.08;;;;;;;27.14;23.40;98906.56;5109401;27;20031;-79
2022/10/06 04:24:07;;;;;;;2.35;0.95;;;;;;;26.88;23.33;98907.53;5104859;28;20036;-78
2022/10/06 04:26:38;;;;;;;1.60;0.90;;;;;;;27.02;23.59;98900.81;5109449;28;20092;-79
2022/10/06 04:29:05;;;;;;;3.35;1.00;;;;;;;26.80;23.64;98905.28;5108161;28;20031;-79
2022/10/06 04:31:35;;;;;;;0.73;0.73;;;;;;;26.70;24.07;98909.84;5103570;28;20155;-79
2022/10/06 04:34:04;;;;;;;0.93;0.80;;;;;;;26.94;23.86;98910.63;5110695;28;20040;-80
2022/10/06 04:36:33;;;;;;;0.70;0.70;;;;;;;27.13;23.50;98915.47;5096333;28;20035;-79
2022/10/06 04:39:02;;;;;;;0.73;0.70;;;;;;;27.36;23.27;98906.91;5102083;28;20028;-80
2022/10/06 04:41:31;;;;;;;2.60;0.82;;;;;;;27.49;23.04;98915.53;5104101;28;21156;-79
2022/10/06 04:43:58;;;;;;;0.93;0.60;;;;;;;27.51;23.17;98913.84;5103376;28;20028;-78
2022/10/06 04:46:25;;;;;;;0.70;0.70;;;;;;;27.57;23.02;98920.56;5107198;28;20510;-77
2022/10/06 04:48:53;;;;;;;2.15;0.70;;;;;;;27.54;22.91;98918.59;5113406;28;20032;-78
2022/10/06 04:51:21;;;;;;;1.67;0.60;;;;;;;27.54;22.83;98912.97;5112688;28;20096;-78
2022/10/06 04:53:48;;;;;;;1.17;0.57;;;;;;;27.61;23.37;98917.66;5092965;28;20039;-78
2022/10/06 04:56:20;;;;;;;0.70;0.70;;;;;;;27.53;22.83;98919.06;5110630;28;20074;-78
2022/10/06 04:58:48;;;;;;;1.38;0.57;;;;;;;27.68;22.98;98923.91;5133985;28;20023;-78
2022/10/06 05:01:21;;;;;;;0.93;0.60;;;;;;;27.54;23.24;98918.59;5133987;28;20038;-78
2022/10/06 05:03:48;;;;;;;1.20;0.60;;;;;;;27.53;23.30;98928.31;5133697;28;20033;-78
2022/10/06 05:06:26;;;;;;;2.70;0.60;;;;;;;27.68;23.55;98926.75;5133968;27;20035;-78
2022/10/06 05:08:55;;;;;;;1.33;0.73;;;;;;;27.68;23.14;98923.91;5104411;28;20090;-77
2022/10/06 05:11:22;;;;;;;2.97;0.60;;;;;;;27.56;23.60;98921.00;5111861;28;20066;-78
2022/10/06 05:13:50;;;;;;;1.42;0.75;;;;;;;27.56;23.49;98919.00;5112335;28;20448;-78
2022/10/06 05:16:16;;;;;;;0.98;0.70;;;;;;;27.72;23.37;98929.50;5111993;28;20123;-78
2022/10/06 05:18:43;;;;;;;0.98;0.70;;;;;;;27.75;23.60;98925.81;5111825;28;20028;-78
2022/10/06 05:21:18;;;;;;;3.67;0.77;;;;;;;27.80;23.74;98930.91;5113310;28;20103;-78
2022/10/06 05:23:45;;;;;;;1.90;0.90;;;;;;;27.78;23.94;98934.19;5113273;28;20031;-78
2022/10/06 05:26:15;;;;;;;0.70;0.70;;;;;;;28.01;23.99;98936.88;5105345;28;20038;-78
2022/10/06 05:28:41;;;;;;;1.63;0.60;;;;;;;28.22;23.79;98937.56;5092788;28;20518;-78
2022/10/06 05:31:30;;;;;;;0.82;0.60;;;;;;;28.34;23.77;98945.34;5093150;28;20111;-78
2022/10/06 05:33:57;;;;;;;1.08;0.68;;;;;;;28.39;23.94;98941.97;5092587;28;20043;-78
2022/10/06 05:36:31;;;;;;;2.25;0.60;;;;;;;28.45;23.71;98941.00;5094987;28;20032;-78
2022/10/06 05:38:58;;;;;;;0.98;0.80;;;;;;;28.40;23.92;98941.53;5096890;28;20056;-78
2022/10/06 05:41:29;;;;;;;0.70;0.70;;;;;;;28.67;23.81;98946.91;5096762;28;20031;-78
2022/10/06 05:43:57;;;;;;;0.90;0.70;;;;;;;29.07;23.77;98948.22;5097267;28;20028;-78
2022/10/06 05:46:27;;;;;;;0.85;0.73;;;;;;;29.21;23.22;98947.84;5102216;28;20137;-78
2022/10/06 05:49:11;;;;;;;0.77;0.70;;;;;;;29.15;23.83;98955.25;5114682;28;20105;-78
2022/10/06 05:51:41;;;;;;;0.70;0.60;;;;;;;29.10;23.75;98958.63;5115434;28;20036;-78
2022/10/06 05:54:07;;;;;;;0.60;0.60;;;;;;;29.26;23.88;98952.94;5116623;28;20027;-77
2022/10/06 05:56:36;;;;;;;1.15;0.70;;;;;;;29.45;23.71;98956.03;5116611;28;20028;-78
2022/10/06 05:59:03;;;;;;;0.65;0.65;;;;;;;29.70;23.77;98951.19;5116908;28;20028;-78
2022/10/06 06:01:41;;;;;;;0.65;0.65;;;;;;;29.79;23.71;98959.84;5114112;28;20067;-78
2022/10/06 06:04:09;;;;;;;0.50;0.50;;;;;;;29.94;23.79;98963.78;5108461;28;20036;-78
2022/10/06 06:06:41;;;;;;;0.60;0.60;;;;;;;29.88;24.25;98974.13;5115787;28;20059;-78
2022/10/06 06:09:10;;;;;;;0.70;0.63;;;;;;;30.21;24.40;98980.34;5101054;28;20035;-78
2022/10/06 06:11:38;;;;;;;0.40;0.40;;;;;;;30.24;24.49;98987.94;5096008;28;20021;-78
2022/10/06 06:14:10;;;;;;;0.75;0.75;;;;;;;30.33;24.51;98990.09;5095803;28;20115;-78
2022/10/06 06:16:38;;;;;;;1.08;0.90;;;;;;;30.37;24.67;98985.09;5097702;28;20042;-78
2022/10/06 06:19:05;;;;;;;1.17;0.80;;;;;;;30.46;24.69;98996.53;5116185;28;20026;-78
2022/10/06 06:21:32;;;;;;;1.20;1.10;;;;;;;30.32;25.58;98986.44;5116263;28;20039;-78
2022/10/06 06:23:58;;;;;;;1.65;1.00;;;;;;;30.35;25.21;98996.09;5116285;28;20108;-78
2022/10/06 06:26:26;;;;;;;0.82;0.60;;;;;;;30.53;25.42;98997.09;5115962;28;20032;-78
2022/10/06 06:28:55;;;;;;;1.00;0.85;;;;;;;30.30;25.62;99003.09;5115132;28;20015;-78
2022/10/06 06:31:26;;;;;;;1.67;0.90;;;;;;;30.38;25.83;99009.38;5095273;28;20028;-78
2022/10/06 06:33:55;;;;;;;1.25;0.73;;;;;;;30.81;25.34;99009.50;5095948;28;20488;-78
2022/10/06 06:36:25;;;;;;;0.80;0.80;;;;;;;30.77;25.94;99011.66;5095314;28;20050;-78
2022/10/06 06:38:54;;;;;;;1.00;0.90;;;;;;;30.76;26.01;99013.72;5113951;28;20028;-78
2022/10/06 06:41:22;;;;;;;1.02;0.75;;;;;;;30.81;26.13;99023.69;5115824;28;20020;-78
2022/10/06 06:43:49;;;;;;;2.40;0.80;;;;;;;30.17;25.92;99016.50;5107690;28;20107;-78
2022/10/06 06:46:17;;;;;;;1.38;0.65;;;;;;;30.83;24.89;99017.56;5094772;28;20038;-78
2022/10/06 06:48:44;;;;;;;1.88;0.93;;;;;;;31.11;23.76;99022.28;5095118;28;20369;-78
2022/10/06 06:51:10;;;;;;;1.52;0.77;;;;;;;31.25;23.91;99028.19;5095670;28;20052;-78
2022/10/06 06:53:40;;;;;;;0.70;0.60;;;;;;;31.23;24.96;99027.06;5095259;28;20032;-78
2022/10/06 06:56:08;;;;;;;0.75;0.50;;;;;;;31.29;25.13;99040.25;5115205;28;20054;-78
2022/10/06 06:58:37;;;;;;;0.65;0.60;;;;;;;31.24;24.04;99046.50;5113925;28;20070;-78
2022/10/06 07:01:10;;;;;;;1.55;0.70;;;;;;;30.21;25.44;99044.69;5114726;28;20024;-79
2022/10/06 07:03:38;;;;;;;0.60;0.60;;;;;;;30.32;25.61;99054.44;5114140;28;20437;-78
2022/10/06 07:06:09;;;;;;;2.72;1.10;;;;;;;31.00;25.07;99061.56;5114068;28;20059;-78
2022/10/06 07:08:37;;;;;;;0.98;0.85;;;;;;;31.14;24.46;99069.56;5104618;28;20424;-79
2022/10/06 07:11:18;;;;;;;1.65;0.95;;;;;;;30.98;24.91;99069.72;5115091;28;20034;-78
2022/10/06 07:13:45;;;;;;;3.58;1.00;;;;;;;31.06;23.90;99068.25;5114686;28;20058;-78
2022/10/06 07:27:23;;;;;;;1.15;0.98;;;;;;;30.89;23.91;99093.13;5094482;28;20043;-79
2022/10/06 07:29:55;;;;;;;1.65;1.00;;;;;;;31.22;23.33;99096.44;5110752;28;20500;-79
2022/10/06 07:32:22;;;;;;;1.50;0.93;;;;;;;31.35;23.19;99100.81;5114630;28;20402;-79
2022/10/06 07:34:49;;;;;;;1.23;0.90;;;;;;;31.36;23.46;99104.47;5114757;28;20107;-79
2022/10/06 07:37:16;;;;;;;2.28;1.50;;;;;;;30.85;24.25;99106.63;5114470;28;20024;-79
2022/10/06 07:39:43;;;;;;;3.00;1.63;;;;;;;30.91;23.81;99098.34;5114471;28;20028;-79
2022/10/06 07:42:14;;;;;;;1.63;1.20;;;;;;;30.86;23.89;99104.53;5107681;28;20032;-79
2022/10/06 07:45:36;;;;;;;2.05;1.30;;;;;;;31.21;24.21;99103.38;5099627;28;20547;-79
2022/10/06 07:47:30;;;;;;;2.20;1.07;;;;;;;31.62;23.54;99094.63;5094064;28;20028;-79
2022/10/06 07:49:57;;;;;;;2.00;1.20;;;;;;;31.89;23.31;99096.84;5093914;28;20492;-79
2022/10/06 07:52:24;;;;;;;1.33;1.10;;;;;;;31.22;23.55;99102.94;5094004;28;20032;-78
2022/10/06 07:54:50;;;;;;;2.03;1.20;;;;;;;31.08;23.84;99108.28;5112155;28;20459;-79
2022/10/06 07:57:16;;;;;;;1.13;1.00;;;;;;;31.01;24.11;99106.50;5113746;28;20548;-79
2022/10/06 07:59:42;;;;;;;1.45;1.23;;;;;;;30.62;24.59;99110.59;5105301;28;20032;-79
2022/10/06 08:02:09;;;;;;;1.63;1.15;;;;;;;30.47;24.60;99117.97;5112930;28;20073;-79
2022/10/06 08:04:35;;;;;;;1.65;1.10;;;;;;;30.83;24.68;99111.16;5114073;28;20035;-79
2022/10/06 08:07:01;;;;;;;2.83;1.13;;;;;;;30.96;23.78;99112.75;5094121;28;20446;-79
2022/10/06 08:09:29;;;;;;;1.33;1.00;;;;;;;31.36;23.68;99127.16;5093788;28;20036;-79
2022/10/06 08:11:55;;;;;;;1.60;1.10;;;;;;;31.70;22.69;99129.22;5093711;28;20035;-79
2022/10/06 08:14:22;;;;;;;1.77;1.10;;;;;;;31.81;23.50;99132.47;5093653;28;20086;-79
2022/10/06 08:16:48;;;;;;;1.00;0.90;;;;;;;31.94;23.51;99130.34;5094214;28;20051;-79
2022/10/06 08:19:16;;;;;;;2.08;1.20;;;;;;;31.96;23.29;99139.19;5098436;28;20032;-79
2022/10/06 08:21:42;;;;;;;0.95;0.88;;;;;;;31.95;23.60;99141.25;5113801;28;20395;-79
2022/10/06 08:24:09;;;;;;;3.03;1.15;;;;;;;31.68;23.32;99148.75;5113883;28;20495;-79
2022/10/06 08:26:35;;;;;;;1.60;1.05;;;;;;;31.28;24.34;99152.16;5113641;28;20024;-79
2022/10/06 08:29:02;;;;;;;1.60;1.50;;;;;;;31.71;24.67;99160.00;5111953;28;20066;-79
2022/10/06 08:31:29;;;;;;;3.88;3.40;;;;;;;31.65;24.69;99161.84;5093255;28;20118;-80
2022/10/06 08:33:56;;;;;;;3.85;2.45;;;;;;;32.23;23.84;99164.97;5093903;28;20032;-79
2022/10/06 08:36:25;;;;;;;3.15;1.70;;;;;;;31.73;24.63;99160.34;5099454;28;20395;-79
2022/10/06 08:38:53;;;;;;;2.38;1.92;;;;;;;31.97;23.78;99164.31;5114036;28;20019;-79
2022/10/06 08:41:38;;;;;;;1.67;1.52;;;;;;;31.45;25.30;99166.22;5113583;28;20024;-79
2022/10/06 08:44:19;;;;;;;3.00;1.98;;;;;;;31.75;25.08;99171.22;5113916;28;20026;-79
2022/10/06 08:46:55;;;;;;;1.40;1.10;;;;;;;30.89;25.58;99180.25;5113624;28;20028;-79
2022/10/06 08:49:24;;;;;;;1.65;1.55;;;;;;;31.22;25.20;99176.72;5109722;28;20161;-79
2022/10/06 08:52:22;;;;;;;2.83;1.42;;;;;;;31.45;26.36;99184.06;5093114;28;20103;-79
2022/10/06 08:55:13;;;;;;;2.78;1.83;;;;;;;31.64;25.21;99185.81;5111184;28;20032;-79
2022/10/06 08:58:06;;;;;;;1.52;1.42;;;;;;;31.42;26.18;99179.25;5098772;28;20056;-79
2022/10/06 09:00:32;;;;;;;3.58;1.48;;;;;;;31.31;25.75;99179.63;5113101;28;20061;-79
2022/10/06 09:03:00;;;;;;;2.95;1.50;;;;;;;31.79;24.57;99186.88;5113239;28;20085;-79
2022/10/06 09:05:29;;;;;;;1.67;1.45;;;;;;;31.08;26.46;99180.03;5110328;28;20433;-79
2022/10/06 09:08:15;;;;;;;1.52;1.33;;;;;;;30.96;26.48;99182.88;5106796;28;20098;-79
2022/10/06 09:10:41;;;;;;;6.20;2.03;;;;;;;31.00;27.05;99172.19;5116129;28;20031;-79
2022/10/06 09:13:34;;;;;;;5.13;2.17;;;;;;;31.76;25.32;99182.16;5117348;28;20031;-79
2022/10/06 09:16:06;;;;;;;3.38;1.80;;;;;;;31.77;25.55;99177.22;5116186;28;20032;-79
2022/10/06 09:18:48;;;;;;;4.38;1.67;;;;;;;32.35;25.19;99184.00;5117541;28;20032;-79
2022/10/06 09:21:17;;;;;;;2.60;1.60;;;;;;;32.71;24.80;99189.13;5117348;28;20043;-79
2022/10/06 09:23:56;;;;;;;3.58;1.52;;;;;;;33.26;23.84;99190.13;5112309;28;20039;-80
2022/10/06 09:26:28;;;;;;;1.50;1.40;;;;;;;33.61;25.19;99196.41;5096595;28;20077;-79
2022/10/06 09:28:56;;;;;;;1.33;1.20;;;;;;;33.96;24.18;99192.75;5114648;28;20090;-79
2022/10/06 09:31:36;;;;;;;1.25;1.15;;;;;;;34.70;24.27;99200.00;5096745;28;20039;-80
2022/10/06 09:34:23;;;;;;;2.08;1.48;;;;;;;35.09;23.38;99200.94;5095357;28;20035;-80
2022/10/06 09:36:58;;;;;;;1.20;1.10;;;;;;;35.39;22.78;99194.91;5096614;28;20036;-80
2022/10/06 09:39:25;;;;;;;1.98;1.30;;;;;;;35.19;23.22;99196.78;5096296;28;20383;-80
2022/10/06 09:41:53;;;;;;;1.55;1.15;;;;;;;35.37;23.47;99191.75;5106082;28;20031;-80
2022/10/06 09:44:28;;;;;;;1.27;1.17;;;;;;;35.19;23.57;99199.63;5116869;28;20052;-80
2022/10/06 09:46:54;;;;;;;1.13;1.02;;;;;;;34.31;25.80;99207.47;5116990;28;20027;-80
2022/10/06 09:49:23;;;;;;;1.20;1.10;;;;;;;33.16;24.58;99205.63;5116945;28;20052;-80
2022/10/06 09:52:13;;;;;;;1.27;1.17;;;;;;;33.30;25.15;99197.25;5116603;28;20395;-80
2022/10/06 09:54:43;;;;;;;;;;;;;;;33.54;23.18;99206.03;5116892;28;20034;-80
2022/10/06 09:57:21;;;;;;;1.25;1.10;;;;;;;33.44;24.99;99210.91;5116577;28;19919;-80
2022/10/06 09:59:47;;;;;;;3.63;1.42;;;;;;;32.73;24.07;99215.84;5096170;28;20024;-79
2022/10/06 10:02:35;;;;;;;1.23;1.13;;;;;;;32.20;26.93;99217.09;5109119;28;20036;-80
2022/10/06 10:05:17;;;;;;;1.40;1.17;;;;;;;31.62;28.84;99216.72;5116283;28;20471;-80
2022/10/06 10:07:46;;;;;;;2.58;1.30;;;;;;;31.85;26.52;99221.19;5116211;28;20027;-79
2022/10/06 10:10:20;;;;;;;2.35;1.10;;;;;;;31.96;27.21;99225.25;5116435;28;20023;-79
2022/10/06 10:12:54;;;;;;;1.58;1.15;;;;;;;31.31;26.77;99210.84;5116384;28;20452;-80
2022/10/06 10:15:20;;;;;;;1.77;1.23;;;;;;;31.11;30.68;99218.03;5115375;28;20036;-79
2022/10/06 10:17:52;;;;;;;1.20;1.10;;;;;;;32.23;25.47;99218.97;5116154;28;20510;-79
2022/10/06 10:20:32;;;;;;;1.75;1.25;;;;;;;32.55;24.19;99220.66;5095868;28;20506;-79
2022/10/06 10:23:06;;;;;;;2.03;1.40;;;;;;;31.71;26.57;99225.34;5095066;28;20036;-79
2022/10/06 10:25:39;;;;;;;2.22;1.48;;;;;;;32.63;25.57;99224.78;5096023;28;20267;-79
2022/10/06 10:28:27;;;;;;;2.15;1.48;;;;;;;32.44;25.23;99221.00;5095477;28;20036;-79
2022/10/06 10:31:19;;;;;;;1.95;1.30;;;;;;;32.37;24.86;99229.03;5095440;28;20031;-80
2022/10/06 10:34:00;;;;;;;2.38;1.40;;;;;;;32.04;25.79;99231.50;5097964;28;20059;-80
2022/10/06 10:36:38;;;;;;;1.25;1.15;;;;;;;32.46;26.24;99232.75;5115531;28;20034;-80
2022/10/06 10:39:11;;;;;;;2.03;1.25;;;;;;;33.22;24.60;99235.03;5115591;28;20023;-80
2022/10/06 10:41:47;;;;;;;0.95;0.90;;;;;;;33.22;24.66;99229.34;5114841;28;20035;-80
2022/10/06 10:44:26;;;;;;;1.20;1.02;;;;;;;33.00;25.26;99234.31;5115813;28;20455;-80
2022/10/06 10:46:59;;;;;;;1.60;1.08;;;;;;;33.21;24.85;99228.56;5095218;28;20062;-80
2022/10/06 10:49:31;;;;;;;2.92;0.80;;;;;;;34.23;23.88;99226.19;5095879;28;20024;-80
2022/10/06 10:52:21;;;;;;;2.50;0.90;;;;;;;34.83;23.92;99219.75;5097235;28;20028;-80
2022/10/06 10:54:52;;;;;;;;;;;;;;;34.86;21.45;99218.78;5115829;28;20517;-80
2022/10/06 10:57:21;;;;;;;2.65;1.08;;;;;;;34.33;22.82;99216.34;5115427;28;19968;-80
2022/10/06 10:59:55;;;;;;;1.23;0.80;;;;;;;33.91;23.41;99224.75;5107618;28;20028;-79
2022/10/06 11:02:22;;;;;;;0.82;0.60;;;;;;;34.58;23.34;99218.09;5094996;28;20028;-80
2022/10/06 11:05:00;;;;;;;0.80;0.80;;;;;;;34.90;23.65;99219.41;5094734;28;20043;-80
2022/10/06 11:07:44;;;;;;;0.68;0.68;;;;;;;35.42;23.39;99211.09;5112602;28;20016;-80
2022/10/06 11:10:25;;;;;;;1.17;0.90;;;;;;;35.29;23.93;99210.50;5115057;28;20032;-80
2022/10/06 11:13:23;;;;;;;0.95;0.65;;;;;;;35.47;23.37;99212.47;5115194;28;20094;-80
2022/10/06 11:16:23;;;;;;;0.95;0.80;;;;;;;34.24;25.81;99209.91;5113257;28;20027;-80
2022/10/06 11:19:13;;;;;;;1.40;0.80;;;;;;;33.84;26.53;99215.75;5105586;28;20523;-79
2022/10/06 11:21:49;;;;;;;2.10;0.70;;;;;;;34.01;25.21;99214.94;5110262;28;20107;-80
2022/10/06 11:24:21;;;;;;;2.05;0.88;;;;;;;33.68;24.60;99213.19;5113911;28;20031;-80
2022/10/06 11:27:25;;;;;;;1.30;1.20;;;;;;;32.60;26.21;99226.50;5114743;28;20479;-80
2022/10/06 11:29:57;;;;;;;1.35;0.93;;;;;;;33.09;24.83;99240.88;5113160;28;20047;-80
2022/10/06 11:32:39;;;;;;;4.72;1.30;;;;;;;32.04;29.51;99232.25;5111689;28;20398;-80
2022/10/06 11:35:18;;;;;;;1.60;1.15;;;;;;;32.71;25.15;99229.75;5102763;28;20475;-80
2022/10/06 11:37:54;;;;;;;1.50;1.02;;;;;;;32.84;25.61;99231.72;5114829;28;20046;-80
2022/10/06 11:40:42;;;;;;;1.20;0.98;;;;;;;33.42;26.42;99232.59;5113627;28;20032;-80
2022/10/06 11:43:40;;;;;;;2.25;1.00;;;;;;;32.54;30.61;99234.06;5113710;28;20036;-80
2022/10/06 11:46:47;;;;;;;1.00;0.90;;;;;;;33.63;24.04;99225.22;5114352;28;20032;-80
2022/10/06 11:49:28;;;;;;;3.33;1.20;;;;;;;34.37;24.31;99221.91;5114429;28;20036;-80
2022/10/06 11:51:56;;;;;;;2.10;0.90;;;;;;;34.69;23.10;99236.28;5114377;28;20028;-80
2022/10/06 11:54:47;;;;;;;3.25;0.90;;;;;;;34.51;23.78;99221.25;5114367;28;20088;-80
2022/10/06 11:57:22;;;;;;;1.50;1.15;;;;;;;33.86;23.43;99233.16;5113550;28;20059;-80
2022/10/06 11:59:54;;;;;;;1.38;1.08;;;;;;;33.76;22.86;99225.84;5108197;28;20032;-80
2022/10/06 12:02:32;;;;;;;1.50;1.00;;;;;;;34.19;23.94;99228.44;5113694;28;20105;-80
2022/10/06 12:05:13;;;;;;;1.10;0.93;;;;;;;34.20;23.98;99232.84;5113815;28;20039;-80